sensor_id;sensor_type;location;lat;lon;timestamp;P1;durP1;ratioP1;P2;durP2;ratioP2
25327;SDS011;13279;51.300;12.394;2022-10-16T00:01:16;1.57;;;0.90;;
25327;SDS011;13279;51.300;12.394;2022-10-16T00:03:45;3.00;;;0.80;;
25327;SDS011;13279;51.300;12.394;2022-10-16T00:06:13;1.00;;;0.90;;
25327;SDS011;13279;51.300;12.394;2022-10-16T00:08:44;1.03;;;0.70;;
25327;SDS011;13279;51.300;12.394;2022-10-16T00:11:13;1.13;;;1.00;;
25327;SDS011;13279;51.300;12.394;2022-10-16T00:13:43;5.43;;;0.70;;
25327;SDS011;13279;51.300;12.394;2022-10-16T00:16:12;0.67;;;0.67;;
25327;SDS011;13279;51.300;12.394;2022-10-16T00:18:40;1.03;;;0.80;;
25327;SDS011;13279;51.300;12.394;2022-10-16T00:21:08;1.40;;;0.93;;
25327;SDS011;13279;51.300;12.394;2022-10-16T00:23:37;1.77;;;0.77;;
25327;SDS011;13279;51.300;12.394;2022-10-16T00:26:08;1.07;;;0.70;;
25327;SDS011;13279;51.300;12.394;2022-10-16T00:28:36;3.40;;;0.67;;
25327;SDS011;13279;51.300;12.394;2022-10-16T00:31:05;2.87;;;0.70;;
25327;SDS011;13279;51.300;12.394;2022-10-16T00:33:33;1.73;;;0.70;;
25327;SDS011;13279;51.300;12.394;2022-10-16T00:36:01;0.90;;;0.60;;
25327;SDS011;13279;51.300;12.394;2022-10-16T00:38:31;1.80;;;0.63;;
25327;SDS011;13279;51.300;12.394;2022-10-16T00:40:58;1.83;;;0.80;;
25327;SDS011;13279;51.300;12.394;2022-10-16T00:43:36;2.37;;;0.67;;
25327;SDS011;13279;51.300;12.394;2022-10-16T00:46:08;3.50;;;0.70;;
25327;SDS011;13279;51.300;12.394;2022-10-16T00:48:40;0.70;;;0.70;;
25327;SDS011;13279;51.300;12.394;2022-10-16T00:51:09;1.90;;;1.07;;
25327;SDS011;13279;51.300;12.394;2022-10-16T00:53:37;8.73;;;0.87;;
25327;SDS011;13279;51.300;12.394;2022-10-16T00:56:04;0.47;;;0.47;;
25327;SDS011;13279;51.300;12.394;2022-10-16T00:58:32;0.73;;;0.53;;
25327;SDS011;13279;51.300;12.394;2022-10-16T01:01:01;1.00;;;0.90;;
25327;SDS011;13279;51.300;12.394;2022-10-16T01:03:33;3.63;;;0.53;;
25327;SDS011;13279;51.300;12.394;2022-10-16T01:06:06;0.60;;;0.60;;
25327;SDS011;13279;51.300;12.394;2022-10-16T01:08:45;0.67;;;0.67;;
25327;SDS011;13279;51.300;12.394;2022-10-16T01:11:22;6.70;;;0.90;;
25327;SDS011;13279;51.300;12.394;2022-10-16T01:13:55;0.60;;;0.50;;
25327;SDS011;13279;51.300;12.394;2022-10-16T01:16:30;0.93;;;0.67;;
25327;SDS011;13279;51.300;12.394;2022-10-16T01:19:05;2.10;;;0.80;;
25327;SDS011;13279;51.300;12.394;2022-10-16T01:21:39;0.40;;;0.40;;
25327;SDS011;13279;51.300;12.394;2022-10-16T01:24:12;0.70;;;0.70;;
25327;SDS011;13279;51.300;12.394;2022-10-16T01:27:12;1.90;;;0.60;;
25327;SDS011;13279;51.300;12.394;2022-10-16T01:29:44;0.53;;;0.53;;
25327;SDS011;13279;51.300;12.394;2022-10-16T01:32:19;0.77;;;0.70;;
25327;SDS011;13279;51.300;12.394;2022-10-16T01:34:50;2.03;;;0.60;;
25327;SDS011;13279;51.300;12.394;2022-10-16T01:37:22;1.53;;;0.67;;
25327;SDS011;13279;51.300;12.394;2022-10-16T01:40:07;1.03;;;0.70;;
25327;SDS011;13279;51.300;12.394;2022-10-16T01:42:40;0.80;;;0.60;;
25327;SDS011;13279;51.300;12.394;2022-10-16T01:45:13;0.97;;;0.67;;
25327;SDS011;13279;51.300;12.394;2022-10-16T01:47:44;0.63;;;0.63;;
25327;SDS011;13279;51.300;12.394;2022-10-16T01:50:13;0.77;;;0.47;;
25327;SDS011;13279;51.300;12.394;2022-10-16T01:52:43;1.30;;;0.70;;
25327;SDS011;13279;51.300;12.394;2022-10-16T01:55:16;0.73;;;0.70;;
25327;SDS011;13279;51.300;12.394;2022-10-16T01:57:47;1.10;;;0.77;;
25327;SDS011;13279;51.300;12.394;2022-10-16T02:00:17;0.90;;;0.90;;
25327;SDS011;13279;51.300;12.394;2022-10-16T02:02:47;2.57;;;0.70;;
25327;SDS011;13279;51.300;12.394;2022-10-16T02:05:20;0.73;;;0.60;;
25327;SDS011;13279;51.300;12.394;2022-10-16T02:07:52;1.30;;;0.60;;
25327;SDS011;13279;51.300;12.394;2022-10-16T02:10:20;0.50;;;0.50;;
25327;SDS011;13279;51.300;12.394;2022-10-16T02:12:52;2.27;;;0.60;;
25327;SDS011;13279;51.300;12.394;2022-10-16T02:15:24;1.40;;;0.57;;
25327;SDS011;13279;51.300;12.394;2022-10-16T02:17:52;2.00;;;0.67;;
25327;SDS011;13279;51.300;12.394;2022-10-16T02:20:19;1.47;;;0.60;;
25327;SDS011;13279;51.300;12.394;2022-10-16T02:22:52;0.60;;;0.60;;
25327;SDS011;13279;51.300;12.394;2022-10-16T02:25:26;5.60;;;0.80;;
25327;SDS011;13279;51.300;12.394;2022-10-16T02:28:00;1.60;;;0.83;;
25327;SDS011;13279;51.300;12.394;2022-10-16T02:30:32;1.60;;;0.80;;
25327;SDS011;13279;51.300;12.394;2022-10-16T02:33:03;0.77;;;0.77;;
25327;SDS011;13279;51.300;12.394;2022-10-16T02:35:33;1.63;;;0.90;;
25327;SDS011;13279;51.300;12.394;2022-10-16T02:38:02;4.80;;;1.00;;
25327;SDS011;13279;51.300;12.394;2022-10-16T02:40:31;1.13;;;0.93;;
25327;SDS011;13279;51.300;12.394;2022-10-16T02:43:00;1.23;;;0.73;;
25327;SDS011;13279;51.300;12.394;2022-10-16T02:45:30;0.50;;;0.50;;
25327;SDS011;13279;51.300;12.394;2022-10-16T02:47:58;0.63;;;0.60;;
25327;SDS011;13279;51.300;12.394;2022-10-16T02:50:25;0.80;;;0.80;;
25327;SDS011;13279;51.300;12.394;2022-10-16T02:52:53;0.60;;;0.60;;
25327;SDS011;13279;51.300;12.394;2022-10-16T02:55:21;2.00;;;0.80;;
25327;SDS011;13279;51.300;12.394;2022-10-16T02:57:48;1.90;;;0.70;;
25327;SDS011;13279;51.300;12.394;2022-10-16T03:00:17;1.17;;;0.57;;
25327;SDS011;13279;51.300;12.394;2022-10-16T03:02:45;0.73;;;0.73;;
25327;SDS011;13279;51.300;12.394;2022-10-16T03:05:13;1.13;;;1.00;;
25327;SDS011;13279;51.300;12.394;2022-10-16T03:07:41;2.27;;;0.93;;
25327;SDS011;13279;51.300;12.394;2022-10-16T03:10:08;3.13;;;0.80;;
25327;SDS011;13279;51.300;12.394;2022-10-16T03:12:35;1.80;;;0.90;;
25327;SDS011;13279;51.300;12.394;2022-10-16T03:15:03;1.23;;;0.80;;
25327;SDS011;13279;51.300;12.394;2022-10-16T03:17:33;5.10;;;0.80;;
25327;SDS011;13279;51.300;12.394;2022-10-16T03:20:01;0.70;;;0.70;;
25327;SDS011;13279;51.300;12.394;2022-10-16T03:22:29;3.37;;;0.63;;
25327;SDS011;13279;51.300;12.394;2022-10-16T03:24:56;0.73;;;0.70;;
25327;SDS011;13279;51.300;12.394;2022-10-16T03:27:24;0.80;;;0.80;;
25327;SDS011;13279;51.300;12.394;2022-10-16T03:29:51;4.33;;;1.03;;
25327;SDS011;13279;51.300;12.394;2022-10-16T03:32:19;0.70;;;0.70;;
25327;SDS011;13279;51.300;12.394;2022-10-16T03:34:48;0.70;;;0.70;;
25327;SDS011;13279;51.300;12.394;2022-10-16T03:37:16;3.10;;;1.00;;
25327;SDS011;13279;51.300;12.394;2022-10-16T03:39:43;0.90;;;0.90;;
25327;SDS011;13279;51.300;12.394;2022-10-16T03:42:11;0.70;;;0.70;;
25327;SDS011;13279;51.300;12.394;2022-10-16T03:44:38;0.67;;;0.67;;
25327;SDS011;13279;51.300;12.394;2022-10-16T03:47:05;1.50;;;0.73;;
25327;SDS011;13279;51.300;12.394;2022-10-16T03:49:33;0.90;;;0.73;;
25327;SDS011;13279;51.300;12.394;2022-10-16T03:52:02;0.80;;;0.80;;
25327;SDS011;13279;51.300;12.394;2022-10-16T03:54:29;2.07;;;1.20;;
25327;SDS011;13279;51.300;12.394;2022-10-16T03:56:57;0.90;;;0.90;;
25327;SDS011;13279;51.300;12.394;2022-10-16T03:59:24;0.97;;;0.97;;
25327;SDS011;13279;51.300;12.394;2022-10-16T04:01:52;2.20;;;1.00;;
25327;SDS011;13279;51.300;12.394;2022-10-16T04:04:19;6.67;;;1.20;;
25327;SDS011;13279;51.300;12.394;2022-10-16T04:06:47;4.77;;;0.80;;
25327;SDS011;13279;51.300;12.394;2022-10-16T04:09:16;1.10;;;0.93;;
25327;SDS011;13279;51.300;12.394;2022-10-16T04:11:43;4.43;;;1.07;;
25327;SDS011;13279;51.300;12.394;2022-10-16T04:14:10;3.20;;;0.90;;
25327;SDS011;13279;51.300;12.394;2022-10-16T04:16:38;1.20;;;1.10;;
25327;SDS011;13279;51.300;12.394;2022-10-16T04:19:05;0.90;;;0.90;;
25327;SDS011;13279;51.300;12.394;2022-10-16T04:21:33;0.80;;;0.80;;
25327;SDS011;13279;51.300;12.394;2022-10-16T04:24:00;1.23;;;1.20;;
25327;SDS011;13279;51.300;12.394;2022-10-16T04:26:30;0.90;;;0.90;;
25327;SDS011;13279;51.300;12.394;2022-10-16T04:28:57;2.00;;;1.20;;
25327;SDS011;13279;51.300;12.394;2022-10-16T04:31:24;3.53;;;1.10;;
25327;SDS011;13279;51.300;12.394;2022-10-16T04:33:52;1.70;;;1.23;;
25327;SDS011;13279;51.300;12.394;2022-10-16T04:36:19;5.90;;;0.93;;
25327;SDS011;13279;51.300;12.394;2022-10-16T04:38:47;1.83;;;1.00;;
25327;SDS011;13279;51.300;12.394;2022-10-16T04:41:15;1.30;;;1.20;;
25327;SDS011;13279;51.300;12.394;2022-10-16T04:43:43;1.50;;;1.10;;
25327;SDS011;13279;51.300;12.394;2022-10-16T04:46:11;6.53;;;1.00;;
25327;SDS011;13279;51.300;12.394;2022-10-16T04:48:38;1.30;;;1.20;;
25327;SDS011;13279;51.300;12.394;2022-10-16T04:51:06;0.90;;;0.90;;
25327;SDS011;13279;51.300;12.394;2022-10-16T04:53:33;2.00;;;0.80;;
25327;SDS011;13279;51.300;12.394;2022-10-16T04:56:01;1.00;;;1.00;;
25327;SDS011;13279;51.300;12.394;2022-10-16T04:58:28;3.33;;;1.13;;
25327;SDS011;13279;51.300;12.394;2022-10-16T05:00:57;2.77;;;0.93;;
25327;SDS011;13279;51.300;12.394;2022-10-16T05:03:27;0.90;;;0.90;;
25327;SDS011;13279;51.300;12.394;2022-10-16T05:05:55;3.23;;;1.10;;
25327;SDS011;13279;51.300;12.394;2022-10-16T05:08:23;0.80;;;0.80;;
25327;SDS011;13279;51.300;12.394;2022-10-16T05:10:50;3.40;;;1.00;;
25327;SDS011;13279;51.300;12.394;2022-10-16T05:13:18;1.47;;;0.80;;
25327;SDS011;13279;51.300;12.394;2022-10-16T05:15:46;1.27;;;1.07;;
25327;SDS011;13279;51.300;12.394;2022-10-16T05:18:15;2.10;;;1.10;;
25327;SDS011;13279;51.300;12.394;2022-10-16T05:20:43;0.80;;;0.80;;
25327;SDS011;13279;51.300;12.394;2022-10-16T05:23:11;2.60;;;1.10;;
25327;SDS011;13279;51.300;12.394;2022-10-16T05:25:38;1.63;;;0.90;;
25327;SDS011;13279;51.300;12.394;2022-10-16T05:28:06;5.77;;;1.10;;
25327;SDS011;13279;51.300;12.394;2022-10-16T05:30:34;1.50;;;1.30;;
25327;SDS011;13279;51.300;12.394;2022-10-16T05:33:04;1.40;;;1.30;;
25327;SDS011;13279;51.300;12.394;2022-10-16T05:35:33;1.87;;;1.03;;
25327;SDS011;13279;51.300;12.394;2022-10-16T05:38:01;2.57;;;1.83;;
25327;SDS011;13279;51.300;12.394;2022-10-16T05:40:29;2.47;;;1.27;;
25327;SDS011;13279;51.300;12.394;2022-10-16T05:42:56;1.57;;;1.30;;
25327;SDS011;13279;51.300;12.394;2022-10-16T05:45:24;1.77;;;1.23;;
25327;SDS011;13279;51.300;12.394;2022-10-16T05:47:52;1.37;;;1.10;;
25327;SDS011;13279;51.300;12.394;2022-10-16T05:50:19;5.57;;;1.33;;
25327;SDS011;13279;51.300;12.394;2022-10-16T05:52:47;1.57;;;1.47;;
25327;SDS011;13279;51.300;12.394;2022-10-16T05:55:15;1.83;;;1.10;;
25327;SDS011;13279;51.300;12.394;2022-10-16T05:57:43;1.53;;;1.30;;
25327;SDS011;13279;51.300;12.394;2022-10-16T06:00:11;1.40;;;1.30;;
25327;SDS011;13279;51.300;12.394;2022-10-16T06:02:38;3.90;;;1.20;;
25327;SDS011;13279;51.300;12.394;2022-10-16T06:05:06;2.37;;;1.17;;
25327;SDS011;13279;51.300;12.394;2022-10-16T06:07:34;1.43;;;1.10;;
25327;SDS011;13279;51.300;12.394;2022-10-16T06:10:04;6.53;;;1.23;;
25327;SDS011;13279;51.300;12.394;2022-10-16T06:12:32;2.60;;;1.60;;
25327;SDS011;13279;51.300;12.394;2022-10-16T06:15:00;1.10;;;1.00;;
25327;SDS011;13279;51.300;12.394;2022-10-16T06:17:27;1.20;;;1.20;;
25327;SDS011;13279;51.300;12.394;2022-10-16T06:19:55;2.40;;;0.97;;
25327;SDS011;13279;51.300;12.394;2022-10-16T06:22:22;2.87;;;1.00;;
25327;SDS011;13279;51.300;12.394;2022-10-16T06:24:50;3.40;;;1.13;;
25327;SDS011;13279;51.300;12.394;2022-10-16T06:27:19;2.00;;;0.90;;
25327;SDS011;13279;51.300;12.394;2022-10-16T06:29:46;1.10;;;1.00;;
25327;SDS011;13279;51.300;12.394;2022-10-16T06:32:14;3.60;;;1.80;;
25327;SDS011;13279;51.300;12.394;2022-10-16T06:34:41;1.20;;;1.10;;
25327;SDS011;13279;51.300;12.394;2022-10-16T06:37:09;1.77;;;0.87;;
25327;SDS011;13279;51.300;12.394;2022-10-16T06:39:36;2.57;;;1.20;;
25327;SDS011;13279;51.300;12.394;2022-10-16T06:42:04;2.90;;;1.40;;
25327;SDS011;13279;51.300;12.394;2022-10-16T06:44:36;1.40;;;1.27;;
25327;SDS011;13279;51.300;12.394;2022-10-16T06:47:03;2.77;;;1.13;;
25327;SDS011;13279;51.300;12.394;2022-10-16T06:49:31;1.97;;;1.40;;
25327;SDS011;13279;51.300;12.394;2022-10-16T06:51:58;1.30;;;1.10;;
25327;SDS011;13279;51.300;12.394;2022-10-16T06:54:27;1.40;;;1.30;;
25327;SDS011;13279;51.300;12.394;2022-10-16T06:56:54;1.27;;;1.17;;
25327;SDS011;13279;51.300;12.394;2022-10-16T06:59:22;1.20;;;1.10;;
25327;SDS011;13279;51.300;12.394;2022-10-16T07:01:51;3.13;;;1.30;;
25327;SDS011;13279;51.300;12.394;2022-10-16T07:04:18;1.27;;;1.10;;
25327;SDS011;13279;51.300;12.394;2022-10-16T07:06:45;1.40;;;1.30;;
25327;SDS011;13279;51.300;12.394;2022-10-16T07:09:13;1.20;;;1.10;;
25327;SDS011;13279;51.300;12.394;2022-10-16T07:11:40;4.83;;;1.20;;
25327;SDS011;13279;51.300;12.394;2022-10-16T07:14:12;1.00;;;1.00;;
25327;SDS011;13279;51.300;12.394;2022-10-16T07:16:42;1.30;;;1.20;;
25327;SDS011;13279;51.300;12.394;2022-10-16T07:19:11;3.00;;;1.50;;
25327;SDS011;13279;51.300;12.394;2022-10-16T07:21:41;6.53;;;1.20;;
25327;SDS011;13279;51.300;12.394;2022-10-16T07:24:10;1.13;;;0.73;;
25327;SDS011;13279;51.300;12.394;2022-10-16T07:26:39;0.70;;;0.70;;
25327;SDS011;13279;51.300;12.394;2022-10-16T07:29:09;1.37;;;0.90;;
25327;SDS011;13279;51.300;12.394;2022-10-16T07:31:39;1.70;;;0.90;;
25327;SDS011;13279;51.300;12.394;2022-10-16T07:34:07;1.23;;;0.80;;
25327;SDS011;13279;51.300;12.394;2022-10-16T07:36:37;1.30;;;0.73;;
25327;SDS011;13279;51.300;12.394;2022-10-16T07:39:05;2.57;;;0.63;;
25327;SDS011;13279;51.300;12.394;2022-10-16T07:41:32;1.40;;;0.60;;
25327;SDS011;13279;51.300;12.394;2022-10-16T07:44:02;0.70;;;0.70;;
25327;SDS011;13279;51.300;12.394;2022-10-16T07:46:30;1.50;;;0.97;;
25327;SDS011;13279;51.300;12.394;2022-10-16T07:48:59;3.13;;;0.70;;
25327;SDS011;13279;51.300;12.394;2022-10-16T07:51:27;1.67;;;0.90;;
25327;SDS011;13279;51.300;12.394;2022-10-16T07:53:56;4.30;;;0.90;;
25327;SDS011;13279;51.300;12.394;2022-10-16T07:56:24;1.40;;;0.60;;
25327;SDS011;13279;51.300;12.394;2022-10-16T07:58:52;1.97;;;0.50;;
25327;SDS011;13279;51.300;12.394;2022-10-16T08:01:20;0.73;;;0.60;;
25327;SDS011;13279;51.300;12.394;2022-10-16T08:03:48;0.60;;;0.60;;
25327;SDS011;13279;51.300;12.394;2022-10-16T08:06:20;0.70;;;0.70;;
25327;SDS011;13279;51.300;12.394;2022-10-16T08:08:49;1.67;;;0.53;;
25327;SDS011;13279;51.300;12.394;2022-10-16T08:11:18;0.40;;;0.40;;
25327;SDS011;13279;51.300;12.394;2022-10-16T08:13:45;0.47;;;0.47;;
25327;SDS011;13279;51.300;12.394;2022-10-16T08:16:13;0.70;;;0.50;;
25327;SDS011;13279;51.300;12.394;2022-10-16T08:18:41;2.33;;;0.47;;
25327;SDS011;13279;51.300;12.394;2022-10-16T08:21:11;1.17;;;0.57;;
25327;SDS011;13279;51.300;12.394;2022-10-16T08:23:40;0.40;;;0.40;;
25327;SDS011;13279;51.300;12.394;2022-10-16T08:26:10;1.50;;;0.40;;
25327;SDS011;13279;51.300;12.394;2022-10-16T08:28:40;0.63;;;0.57;;
25327;SDS011;13279;51.300;12.394;2022-10-16T08:31:08;1.17;;;0.47;;
25327;SDS011;13279;51.300;12.394;2022-10-16T08:33:38;0.40;;;0.40;;
25327;SDS011;13279;51.300;12.394;2022-10-16T08:36:08;0.37;;;0.37;;
25327;SDS011;13279;51.300;12.394;2022-10-16T08:38:38;0.40;;;0.40;;
25327;SDS011;13279;51.300;12.394;2022-10-16T08:44:15;0.40;;;0.40;;
25327;SDS011;13279;51.300;12.394;2022-10-16T08:47:10;3.53;;;0.53;;
25327;SDS011;13279;51.300;12.394;2022-10-16T08:49:43;0.60;;;0.50;;
25327;SDS011;13279;51.300;12.394;2022-10-16T08:52:18;2.63;;;0.60;;
25327;SDS011;13279;51.300;12.394;2022-10-16T08:54:47;3.27;;;0.60;;
25327;SDS011;13279;51.300;12.394;2022-10-16T08:57:19;2.43;;;0.57;;
25327;SDS011;13279;51.300;12.394;2022-10-16T08:59:50;0.43;;;0.43;;
25327;SDS011;13279;51.300;12.394;2022-10-16T09:02:24;2.77;;;0.40;;
25327;SDS011;13279;51.300;12.394;2022-10-16T09:05:00;2.10;;;0.70;;
25327;SDS011;13279;51.300;12.394;2022-10-16T09:07:43;0.30;;;0.30;;
25327;SDS011;13279;51.300;12.394;2022-10-16T09:10:20;1.13;;;1.00;;
25327;SDS011;13279;51.300;12.394;2022-10-16T09:12:55;6.23;;;0.40;;
25327;SDS011;13279;51.300;12.394;2022-10-16T09:15:31;0.80;;;0.80;;
25327;SDS011;13279;51.300;12.394;2022-10-16T09:18:04;3.03;;;0.60;;
25327;SDS011;13279;51.300;12.394;2022-10-16T09:20:42;0.90;;;0.77;;
25327;SDS011;13279;51.300;12.394;2022-10-16T09:23:17;1.70;;;0.50;;
25327;SDS011;13279;51.300;12.394;2022-10-16T09:25:47;5.70;;;0.70;;
25327;SDS011;13279;51.300;12.394;2022-10-16T09:28:16;0.40;;;0.40;;
25327;SDS011;13279;51.300;12.394;2022-10-16T09:30:45;2.63;;;0.60;;
25327;SDS011;13279;51.300;12.394;2022-10-16T09:33:16;1.13;;;0.57;;
25327;SDS011;13279;51.300;12.394;2022-10-16T09:35:46;1.67;;;0.70;;
25327;SDS011;13279;51.300;12.394;2022-10-16T09:38:24;1.23;;;0.80;;
25327;SDS011;13279;51.300;12.394;2022-10-16T09:40:53;0.50;;;0.50;;
25327;SDS011;13279;51.300;12.394;2022-10-16T09:43:24;3.27;;;0.70;;
25327;SDS011;13279;51.300;12.394;2022-10-16T09:45:58;0.93;;;0.60;;
25327;SDS011;13279;51.300;12.394;2022-10-16T09:48:30;0.60;;;0.60;;
25327;SDS011;13279;51.300;12.394;2022-10-16T09:51:03;2.00;;;0.70;;
25327;SDS011;13279;51.300;12.394;2022-10-16T09:53:41;0.67;;;0.60;;
25327;SDS011;13279;51.300;12.394;2022-10-16T09:56:21;0.57;;;0.57;;
25327;SDS011;13279;51.300;12.394;2022-10-16T09:58:49;1.37;;;0.60;;
25327;SDS011;13279;51.300;12.394;2022-10-16T10:01:19;0.70;;;0.70;;
25327;SDS011;13279;51.300;12.394;2022-10-16T10:03:49;1.00;;;0.73;;
25327;SDS011;13279;51.300;12.394;2022-10-16T10:06:21;2.53;;;0.50;;
25327;SDS011;13279;51.300;12.394;2022-10-16T10:08:57;0.70;;;0.60;;
25327;SDS011;13279;51.300;12.394;2022-10-16T10:11:41;5.43;;;0.93;;
25327;SDS011;13279;51.300;12.394;2022-10-16T10:14:24;0.93;;;0.73;;
25327;SDS011;13279;51.300;12.394;2022-10-16T10:17:13;0.83;;;0.73;;
25327;SDS011;13279;51.300;12.394;2022-10-16T10:19:44;1.20;;;0.90;;
25327;SDS011;13279;51.300;12.394;2022-10-16T10:22:19;0.90;;;0.90;;
25327;SDS011;13279;51.300;12.394;2022-10-16T10:24:55;2.30;;;1.10;;
25327;SDS011;13279;51.300;12.394;2022-10-16T10:27:31;0.93;;;0.90;;
25327;SDS011;13279;51.300;12.394;2022-10-16T10:30:07;0.80;;;0.80;;
25327;SDS011;13279;51.300;12.394;2022-10-16T10:32:44;0.90;;;0.90;;
25327;SDS011;13279;51.300;12.394;2022-10-16T10:35:21;1.00;;;0.90;;
25327;SDS011;13279;51.300;12.394;2022-10-16T10:38:00;1.33;;;1.20;;
25327;SDS011;13279;51.300;12.394;2022-10-16T10:40:44;1.30;;;0.80;;
25327;SDS011;13279;51.300;12.394;2022-10-16T10:43:25;0.90;;;0.90;;
25327;SDS011;13279;51.300;12.394;2022-10-16T10:46:05;0.83;;;0.83;;
25327;SDS011;13279;51.300;12.394;2022-10-16T10:48:47;0.80;;;0.80;;
25327;SDS011;13279;51.300;12.394;2022-10-16T10:51:27;4.73;;;1.27;;
25327;SDS011;13279;51.300;12.394;2022-10-16T10:54:07;1.30;;;1.20;;
25327;SDS011;13279;51.300;12.394;2022-10-16T10:56:47;3.00;;;1.00;;
25327;SDS011;13279;51.300;12.394;2022-10-16T11:02:22;1.43;;;1.00;;
25327;SDS011;13279;51.300;12.394;2022-10-16T11:04:58;1.00;;;1.00;;
25327;SDS011;13279;51.300;12.394;2022-10-16T11:08:00;1.07;;;0.80;;
25327;SDS011;13279;51.300;12.394;2022-10-16T11:10:32;1.53;;;0.90;;
25327;SDS011;13279;51.300;12.394;2022-10-16T11:13:08;0.97;;;0.90;;
25327;SDS011;13279;51.300;12.394;2022-10-16T11:15:44;1.07;;;1.00;;
25327;SDS011;13279;51.300;12.394;2022-10-16T11:18:16;1.10;;;1.03;;
25327;SDS011;13279;51.300;12.394;2022-10-16T11:20:50;4.00;;;1.00;;
25327;SDS011;13279;51.300;12.394;2022-10-16T11:23:23;9.00;;;1.10;;
25327;SDS011;13279;51.300;12.394;2022-10-16T11:25:56;3.70;;;0.90;;
25327;SDS011;13279;51.300;12.394;2022-10-16T11:28:32;0.97;;;0.97;;
25327;SDS011;13279;51.300;12.394;2022-10-16T11:31:05;8.53;;;1.00;;
25327;SDS011;13279;51.300;12.394;2022-10-16T11:33:39;0.80;;;0.80;;
25327;SDS011;13279;51.300;12.394;2022-10-16T11:36:14;0.80;;;0.80;;
25327;SDS011;13279;51.300;12.394;2022-10-16T11:38:48;3.03;;;0.90;;
25327;SDS011;13279;51.300;12.394;2022-10-16T11:41:23;3.40;;;1.03;;
25327;SDS011;13279;51.300;12.394;2022-10-16T11:44:06;0.93;;;0.93;;
25327;SDS011;13279;51.300;12.394;2022-10-16T11:46:42;0.63;;;0.60;;
25327;SDS011;13279;51.300;12.394;2022-10-16T11:49:18;0.90;;;0.90;;
25327;SDS011;13279;51.300;12.394;2022-10-16T11:51:55;2.93;;;1.27;;
25327;SDS011;13279;51.300;12.394;2022-10-16T11:54:31;2.73;;;0.83;;
25327;SDS011;13279;51.300;12.394;2022-10-16T11:57:03;1.13;;;0.90;;
25327;SDS011;13279;51.300;12.394;2022-10-16T11:59:42;2.43;;;0.93;;
25327;SDS011;13279;51.300;12.394;2022-10-16T12:02:25;3.70;;;1.80;;
25327;SDS011;13279;51.300;12.394;2022-10-16T12:05:00;1.83;;;1.30;;
25327;SDS011;13279;51.300;12.394;2022-10-16T12:07:38;3.00;;;1.43;;
25327;SDS011;13279;51.300;12.394;2022-10-16T12:10:22;1.63;;;1.00;;
25327;SDS011;13279;51.300;12.394;2022-10-16T12:12:55;2.37;;;1.27;;
25327;SDS011;13279;51.300;12.394;2022-10-16T12:15:23;2.47;;;1.37;;
25327;SDS011;13279;51.300;12.394;2022-10-16T12:17:54;4.40;;;1.23;;
25327;SDS011;13279;51.300;12.394;2022-10-16T12:20:25;2.63;;;1.60;;
25327;SDS011;13279;51.300;12.394;2022-10-16T12:22:59;4.10;;;2.23;;
25327;SDS011;13279;51.300;12.394;2022-10-16T12:25:29;1.67;;;1.57;;
25327;SDS011;13279;51.300;12.394;2022-10-16T12:28:02;2.23;;;1.20;;
25327;SDS011;13279;51.300;12.394;2022-10-16T12:30:33;0.80;;;0.80;;
25327;SDS011;13279;51.300;12.394;2022-10-16T12:33:02;1.93;;;1.07;;
25327;SDS011;13279;51.300;12.394;2022-10-16T12:35:33;3.07;;;0.80;;
25327;SDS011;13279;51.300;12.394;2022-10-16T12:38:15;1.23;;;1.03;;
25327;SDS011;13279;51.300;12.394;2022-10-16T12:40:44;1.13;;;1.03;;
25327;SDS011;13279;51.300;12.394;2022-10-16T12:43:28;6.80;;;0.90;;
25327;SDS011;13279;51.300;12.394;2022-10-16T12:46:04;1.47;;;1.03;;
25327;SDS011;13279;51.300;12.394;2022-10-16T12:48:46;0.70;;;0.70;;
25327;SDS011;13279;51.300;12.394;2022-10-16T12:51:22;2.67;;;1.00;;
25327;SDS011;13279;51.300;12.394;2022-10-16T12:54:00;0.70;;;0.70;;
25327;SDS011;13279;51.300;12.394;2022-10-16T12:56:32;1.90;;;0.80;;
25327;SDS011;13279;51.300;12.394;2022-10-16T12:59:09;1.37;;;0.93;;
25327;SDS011;13279;51.300;12.394;2022-10-16T13:01:56;0.63;;;0.63;;
25327;SDS011;13279;51.300;12.394;2022-10-16T13:07:44;2.10;;;0.77;;
25327;SDS011;13279;51.300;12.394;2022-10-16T13:10:26;1.03;;;0.80;;
25327;SDS011;13279;51.300;12.394;2022-10-16T13:13:10;0.50;;;0.50;;
25327;SDS011;13279;51.300;12.394;2022-10-16T13:15:59;0.50;;;0.50;;
25327;SDS011;13279;51.300;12.394;2022-10-16T13:18:34;0.50;;;0.40;;
25327;SDS011;13279;51.300;12.394;2022-10-16T13:21:18;0.67;;;0.63;;
25327;SDS011;13279;51.300;12.394;2022-10-16T13:23:56;3.50;;;0.67;;
25327;SDS011;13279;51.300;12.394;2022-10-16T13:26:35;0.60;;;0.60;;
25327;SDS011;13279;51.300;12.394;2022-10-16T13:29:13;0.77;;;0.60;;
25327;SDS011;13279;51.300;12.394;2022-10-16T13:31:46;1.03;;;0.63;;
25327;SDS011;13279;51.300;12.394;2022-10-16T13:34:15;0.90;;;0.40;;
25327;SDS011;13279;51.300;12.394;2022-10-16T13:36:46;0.50;;;0.50;;
25327;SDS011;13279;51.300;12.394;2022-10-16T13:39:20;0.73;;;0.60;;
25327;SDS011;13279;51.300;12.394;2022-10-16T13:42:00;1.47;;;0.70;;
25327;SDS011;13279;51.300;12.394;2022-10-16T13:44:30;3.00;;;0.57;;
25327;SDS011;13279;51.300;12.394;2022-10-16T13:47:03;0.53;;;0.50;;
25327;SDS011;13279;51.300;12.394;2022-10-16T13:49:31;2.20;;;0.57;;
25327;SDS011;13279;51.300;12.394;2022-10-16T13:51:59;0.20;;;0.20;;
25327;SDS011;13279;51.300;12.394;2022-10-16T13:54:27;2.20;;;0.57;;
25327;SDS011;13279;51.300;12.394;2022-10-16T13:56:55;0.40;;;0.40;;
25327;SDS011;13279;51.300;12.394;2022-10-16T13:59:25;0.57;;;0.57;;
25327;SDS011;13279;51.300;12.394;2022-10-16T14:01:59;3.40;;;0.50;;
25327;SDS011;13279;51.300;12.394;2022-10-16T14:04:32;0.40;;;0.40;;
25327;SDS011;13279;51.300;12.394;2022-10-16T14:07:00;0.57;;;0.57;;
25327;SDS011;13279;51.300;12.394;2022-10-16T14:09:28;0.40;;;0.40;;
25327;SDS011;13279;51.300;12.394;2022-10-16T14:11:58;0.50;;;0.50;;
25327;SDS011;13279;51.300;12.394;2022-10-16T14:14:31;1.83;;;0.47;;
25327;SDS011;13279;51.300;12.394;2022-10-16T14:17:02;0.83;;;0.83;;
25327;SDS011;13279;51.300;12.394;2022-10-16T14:19:30;1.60;;;0.50;;
25327;SDS011;13279;51.300;12.394;2022-10-16T14:21:58;1.17;;;0.60;;
25327;SDS011;13279;51.300;12.394;2022-10-16T14:24:31;0.50;;;0.50;;
25327;SDS011;13279;51.300;12.394;2022-10-16T14:27:00;5.23;;;0.90;;
25327;SDS011;13279;51.300;12.394;2022-10-16T14:29:30;1.20;;;1.20;;
25327;SDS011;13279;51.300;12.394;2022-10-16T14:32:02;0.73;;;0.73;;
25327;SDS011;13279;51.300;12.394;2022-10-16T14:34:31;3.50;;;1.17;;
25327;SDS011;13279;51.300;12.394;2022-10-16T14:37:01;0.83;;;0.83;;
25327;SDS011;13279;51.300;12.394;2022-10-16T14:39:35;1.00;;;1.00;;
25327;SDS011;13279;51.300;12.394;2022-10-16T14:42:11;1.33;;;1.23;;
25327;SDS011;13279;51.300;12.394;2022-10-16T14:44:50;0.60;;;0.60;;
25327;SDS011;13279;51.300;12.394;2022-10-16T14:47:20;1.90;;;0.70;;
25327;SDS011;13279;51.300;12.394;2022-10-16T14:49:50;0.83;;;0.50;;
25327;SDS011;13279;51.300;12.394;2022-10-16T14:52:20;0.70;;;0.70;;
25327;SDS011;13279;51.300;12.394;2022-10-16T14:54:49;0.70;;;0.70;;
25327;SDS011;13279;51.300;12.394;2022-10-16T14:57:21;2.43;;;0.70;;
25327;SDS011;13279;51.300;12.394;2022-10-16T14:59:52;0.90;;;0.90;;
25327;SDS011;13279;51.300;12.394;2022-10-16T15:02:23;4.20;;;0.53;;
25327;SDS011;13279;51.300;12.394;2022-10-16T15:04:56;1.20;;;0.70;;
25327;SDS011;13279;51.300;12.394;2022-10-16T15:07:25;0.60;;;0.60;;